createdAt,value
2022-09-07T00:01:08.701Z,100097.38
2022-09-07T00:03:37.213Z,100091.91
2022-09-07T00:06:10.175Z,100097.47
2022-09-07T00:08:38.693Z,100075.88
2022-09-07T00:11:12.233Z,100103.59
2022-09-07T00:13:41.455Z,100093.56
2022-09-07T00:16:11.126Z,100088.09
2022-09-07T00:18:42.489Z,100091.13
2022-09-07T00:21:16.477Z,100083.56
2022-09-07T00:23:45.207Z,100085.22
2022-09-07T00:26:15.557Z,100081.34
2022-09-07T00:28:44.377Z,100071.88
2022-09-07T00:31:14.232Z,100079.97
2022-09-07T00:33:44.394Z,100074.16
2022-09-07T00:36:12.807Z,100079.78
2022-09-07T00:38:42.665Z,100069.72
2022-09-07T00:41:11.410Z,100058.91
2022-09-07T00:43:41.513Z,100065.91
2022-09-07T00:46:15.018Z,100052.03
2022-09-07T00:48:50.904Z,100065.69
2022-09-07T00:51:23.371Z,100052.88
2022-09-07T00:53:56.691Z,100057.09
2022-09-07T00:56:25.862Z,100054.31
2022-09-07T00:58:54.962Z,100060.41
2022-09-07T01:01:24.185Z,100045.88
2022-09-07T01:03:53.768Z,100052.56
2022-09-07T01:06:24.092Z,100024.84
2022-09-07T01:08:53.797Z,100044.53
2022-09-07T01:11:23.810Z,100044.00
2022-09-07T01:13:52.438Z,100045.91
2022-09-07T01:16:32.827Z,100050.06
2022-09-07T01:19:09.715Z,100045.91
2022-09-07T01:21:46.664Z,100042.59
2022-09-07T01:24:39.282Z,100041.53
2022-09-07T01:27:45.498Z,100042.59
2022-09-07T01:30:15.001Z,100031.19
2022-09-07T01:32:55.447Z,100040.09
2022-09-07T01:35:30.160Z,100033.69
2022-09-07T01:38:03.162Z,100031.44
2022-09-07T01:40:37.536Z,100022.59
2022-09-07T01:43:12.145Z,100037.00
2022-09-07T01:45:42.222Z,100036.47
2022-09-07T01:48:12.593Z,100030.88
2022-09-07T01:50:44.914Z,100031.47
2022-09-07T01:53:16.706Z,100025.09
2022-09-07T01:55:47.742Z,100031.75
2022-09-07T01:58:20.433Z,100031.44
2022-09-07T02:00:50.930Z,100027.50
2022-09-07T02:03:22.504Z,100031.97
2022-09-07T02:05:54.211Z,100025.94
2022-09-07T02:08:27.880Z,100025.34
2022-09-07T02:10:59.962Z,100027.84
2022-09-07T02:13:34.611Z,100029.22
2022-09-07T02:16:06.029Z,100023.75
2022-09-07T02:18:38.748Z,100016.03
2022-09-07T02:21:09.745Z,100011.06
2022-09-07T02:23:41.632Z,100012.16
2022-09-07T02:26:14.701Z,100011.66
2022-09-07T02:28:44.791Z,100013.84
2022-09-07T02:31:13.088Z,100011.88
2022-09-07T02:33:42.413Z,100012.72
2022-09-07T02:36:11.075Z,100001.09
2022-09-07T02:38:40.843Z,99968.47
2022-09-07T02:41:30.933Z,100005.63
2022-09-07T02:44:01.101Z,100001.50
2022-09-07T02:46:44.253Z,100003.47
2022-09-07T02:49:19.949Z,100011.19
2022-09-07T02:51:55.079Z,100011.69
2022-09-07T02:54:33.945Z,100009.75
2022-09-07T02:57:09.306Z,100005.03
2022-09-07T02:59:50.364Z,100007.91
2022-09-07T03:02:23.191Z,100003.19
2022-09-07T03:04:57.933Z,100004.84
2022-09-07T03:07:34.543Z,99975.84
2022-09-07T03:10:06.217Z,100001.84
2022-09-07T03:12:42.189Z,99976.91
2022-09-07T03:15:13.762Z,100001.81
2022-09-07T03:17:42.587Z,99988.75
2022-09-07T03:20:11.546Z,99988.47
2022-09-07T03:22:39.825Z,99987.38
2022-09-07T03:25:09.355Z,99995.09
2022-09-07T03:27:39.414Z,99998.66
2022-09-07T03:30:10.368Z,99989.78
2022-09-07T03:32:40.372Z,99995.94
2022-09-07T03:35:09.611Z,100001.75
2022-09-07T03:37:38.195Z,99991.19
2022-09-07T03:40:08.600Z,99985.63
2022-09-07T03:42:37.030Z,99996.19
2022-09-07T03:45:06.792Z,99992.81
2022-09-07T03:47:35.416Z,99995.56
2022-09-07T03:50:06.349Z,99999.47
2022-09-07T03:52:35.402Z,100000.50
2022-09-07T03:55:03.717Z,99996.03
2022-09-07T03:57:32.054Z,99988.81
2022-09-07T04:00:01.694Z,99988.75
2022-09-07T04:02:32.045Z,99987.59
2022-09-07T04:05:00.578Z,99973.34
2022-09-07T04:07:31.319Z,99974.28
2022-09-07T04:09:59.656Z,99966.47
2022-09-07T04:12:27.907Z,99977.28
2022-09-07T04:14:56.107Z,99970.91
2022-09-07T04:17:26.589Z,99988.69
2022-09-07T04:19:54.934Z,99972.78
2022-09-07T04:22:23.150Z,99984.75
2022-09-07T04:24:52.812Z,99988.09
2022-09-07T04:27:21.136Z,99984.19
2022-09-07T04:29:49.363Z,99981.94
2022-09-07T04:32:17.598Z,99982.44
2022-09-07T04:34:46.190Z,99986.00
2022-09-07T04:37:14.459Z,99984.09
2022-09-07T04:39:42.742Z,99975.72
2022-09-07T04:42:12.595Z,99980.13
2022-09-07T04:44:40.827Z,99981.75
2022-09-07T04:47:09.195Z,99977.13
2022-09-07T04:49:37.538Z,99970.28
2022-09-07T04:52:05.746Z,99962.50
2022-09-07T04:54:33.980Z,99967.13
2022-09-07T04:57:02.324Z,99956.72
2022-09-07T04:59:32.118Z,99961.59
2022-09-07T05:02:00.616Z,99954.31
2022-09-07T05:04:29.042Z,99953.19
2022-09-07T05:06:57.523Z,99955.91
2022-09-07T05:09:25.722Z,99949.75
2022-09-07T05:11:54.839Z,99951.53
2022-09-07T05:14:24.866Z,99944.38
2022-09-07T05:16:54.635Z,99949.28
2022-09-07T05:19:23.144Z,99953.41
2022-09-07T05:21:51.409Z,99948.34
2022-09-07T05:24:19.735Z,99962.31
2022-09-07T05:26:49.364Z,99957.03
2022-09-07T05:32:08.506Z,99955.88
2022-09-07T05:34:36.731Z,99958.41
2022-09-07T05:37:05.241Z,99955.81
2022-09-07T05:39:33.581Z,99959.03
2022-09-07T05:42:01.833Z,99946.63
2022-09-07T05:44:47.141Z,99949.91
2022-09-07T05:47:16.955Z,99945.91
2022-09-07T05:49:46.959Z,99947.50
2022-09-07T05:52:15.414Z,99939.09
2022-09-07T05:54:43.759Z,99953.63
2022-09-07T05:57:12.666Z,99950.38
2022-09-07T05:59:40.900Z,99943.00
2022-09-07T06:02:09.281Z,99942.63
2022-09-07T06:04:38.955Z,99929.75
2022-09-07T06:07:21.581Z,99938.66
2022-09-07T06:12:39.326Z,99941.16
2022-09-07T06:15:09.038Z,99933.28
2022-09-07T06:17:37.259Z,99914.41
2022-09-07T06:20:08.210Z,99927.91
2022-09-07T06:22:37.204Z,99928.94
2022-09-07T06:25:06.252Z,99926.88
2022-09-07T06:27:34.884Z,99932.50
2022-09-07T06:30:03.275Z,99926.94
2022-09-07T06:32:46.826Z,99930.16
2022-09-07T06:35:16.924Z,99924.75
2022-09-07T06:37:45.574Z,99928.19
2022-09-07T06:40:15.689Z,99925.06
2022-09-07T06:42:47.457Z,99932.53
2022-09-07T06:45:15.714Z,99932.44
2022-09-07T06:47:43.904Z,99933.63
2022-09-07T06:50:12.698Z,99936.53
2022-09-07T06:55:30.625Z,99940.06
2022-09-07T06:57:58.816Z,99938.03
2022-09-07T07:00:27.035Z,99932.53
2022-09-07T07:02:55.440Z,99919.97
2022-09-07T07:05:23.728Z,99924.38
2022-09-07T07:07:53.646Z,99925.28
2022-09-07T07:10:24.725Z,99929.22
2022-09-07T07:12:57.579Z,99931.94
2022-09-07T07:15:27.018Z,99930.78
2022-09-07T07:18:02.591Z,99932.28
2022-09-07T07:20:44.647Z,99925.81
2022-09-07T07:23:14.275Z,99921.88
2022-09-07T07:25:43.644Z,99918.16
2022-09-07T07:31:05.965Z,99921.75
2022-09-07T07:33:39.274Z,99911.97
2022-09-07T07:36:12.667Z,99916.22
2022-09-07T07:44:18.692Z,99898.47
2022-09-07T07:46:49.085Z,99904.06
2022-09-07T07:49:17.340Z,99892.09
2022-09-07T07:54:36.937Z,99904.41
2022-09-07T07:57:05.858Z,99908.50
2022-09-07T07:59:34.056Z,99903.38
2022-09-07T08:02:05.259Z,99899.75
2022-09-07T08:04:34.208Z,99906.78
2022-09-07T08:07:08.672Z,99892.75
2022-09-07T08:09:40.697Z,99887.75
2022-09-07T08:12:09.925Z,99893.09
2022-09-07T08:14:41.370Z,99896.84
2022-09-07T08:17:10.423Z,99893.94
2022-09-07T08:19:38.712Z,99891.94
2022-09-07T08:22:07.193Z,99899.00
2022-09-07T08:24:35.319Z,99886.31
2022-09-07T08:27:05.005Z,99878.78
2022-09-07T08:29:35.082Z,99883.97
2022-09-07T08:32:05.064Z,99881.03
2022-09-07T08:34:33.359Z,99876.56
2022-09-07T08:37:01.445Z,99866.81
2022-09-07T08:39:29.537Z,99868.13
2022-09-07T08:42:07.161Z,99872.81
2022-09-07T08:44:36.414Z,99879.78
2022-09-07T08:47:08.279Z,99872.81
2022-09-07T08:49:42.561Z,99868.78
2022-09-07T08:52:13.933Z,99866.72
2022-09-07T08:54:44.159Z,99864.56
2022-09-07T08:57:21.744Z,99866.91
2022-09-07T08:59:53.207Z,99862.28
2022-09-07T09:02:33.719Z,99859.75
2022-09-07T09:05:20.557Z,99861.19
2022-09-07T09:07:56.571Z,99868.78
2022-09-07T09:10:31.695Z,99864.47
2022-09-07T09:13:06.173Z,99857.25
2022-09-07T09:15:47.417Z,99858.41
2022-09-07T09:18:29.537Z,99854.13
2022-09-07T09:20:58.746Z,99863.91
2022-09-07T09:23:28.616Z,99849.84
2022-09-07T09:25:58.671Z,99849.91
2022-09-07T09:28:31.742Z,99849.94
2022-09-07T09:31:00.717Z,99840.50
2022-09-07T09:33:30.171Z,99842.00
2022-09-07T09:36:00.886Z,99852.63
2022-09-07T09:38:34.832Z,99843.66
2022-09-07T09:41:06.105Z,99845.47
2022-09-07T09:43:40.814Z,99844.19
2022-09-07T09:46:20.382Z,99855.44
2022-09-07T09:48:55.640Z,99856.06
2022-09-07T09:54:24.123Z,99855.84
2022-09-07T09:56:53.865Z,99861.31
2022-09-07T10:05:27.511Z,99843.94
2022-09-07T10:07:56.480Z,99843.56
2022-09-07T10:10:24.977Z,99850.97
2022-09-07T10:12:55.268Z,99851.34
2022-09-07T10:15:45.110Z,99846.38
2022-09-07T10:18:21.430Z,99849.16
2022-09-07T10:20:49.795Z,99855.94
2022-09-07T10:23:25.391Z,99846.81
2022-09-07T10:25:53.726Z,99839.47
2022-09-07T10:28:24.204Z,99844.78
2022-09-07T10:31:04.879Z,99835.59
2022-09-07T10:33:43.972Z,99840.41
2022-09-07T10:36:16.901Z,99850.59
2022-09-07T10:38:48.994Z,99846.00
2022-09-07T10:41:18.104Z,99844.00
2022-09-07T10:43:48.496Z,99840.41
2022-09-07T10:49:25.018Z,99851.25
2022-09-07T10:52:01.980Z,99838.41
2022-09-07T10:54:37.466Z,99839.88
2022-09-07T10:57:15.285Z,99844.50
2022-09-07T11:05:44.334Z,99845.63
2022-09-07T11:08:23.038Z,99839.19
2022-09-07T11:10:57.310Z,99835.75
2022-09-07T11:13:27.732Z,99837.38
2022-09-07T11:15:58.261Z,99833.69
2022-09-07T11:18:30.870Z,99838.25
2022-09-07T11:21:01.205Z,99841.19
2022-09-07T11:23:31.803Z,99845.50
2022-09-07T11:26:07.548Z,99831.66
2022-09-07T11:28:44.769Z,99844.84
2022-09-07T11:31:20.249Z,99831.84
2022-09-07T11:36:51.504Z,99839.25
2022-09-07T11:39:26.340Z,99846.28
2022-09-07T11:41:59.776Z,99841.78
2022-09-07T11:44:32.594Z,99846.38
2022-09-07T11:47:04.318Z,99829.94
2022-09-07T11:49:34.175Z,99833.53
2022-09-07T11:52:05.621Z,99851.75
2022-09-07T11:54:45.549Z,99849.41
2022-09-07T11:57:27.381Z,99860.31
2022-09-07T12:00:04.233Z,99856.00
2022-09-07T12:03:02.174Z,99857.84
2022-09-07T12:06:00.972Z,99870.63
2022-09-07T12:08:42.390Z,99867.84
2022-09-07T12:11:47.094Z,99866.22
2022-09-07T12:14:26.814Z,99875.06
2022-09-07T12:17:09.069Z,99874.69
2022-09-07T12:19:37.490Z,99872.28
2022-09-07T12:22:20.549Z,99867.34
2022-09-07T12:24:51.423Z,99867.03
2022-09-07T12:27:38.801Z,99876.00
2022-09-07T12:30:52.430Z,99872.09
2022-09-07T12:33:23.419Z,99872.16
2022-09-07T12:35:52.577Z,99873.09
2022-09-07T12:39:07.487Z,99874.72
2022-09-07T12:41:46.711Z,99870.94
2022-09-07T12:44:26.111Z,99859.78
2022-09-07T12:47:02.105Z,99872.59
2022-09-07T12:49:52.356Z,99860.84
2022-09-07T12:52:46.632Z,99854.38
2022-09-07T12:58:38.100Z,99862.66
2022-09-07T13:01:30.462Z,99856.09
2022-09-07T13:04:31.145Z,99853.09
2022-09-07T13:07:11.498Z,99852.97
2022-09-07T13:09:40.143Z,99852.16
2022-09-07T13:15:42.563Z,99839.34
2022-09-07T13:18:13.699Z,99837.91
2022-09-07T13:20:42.081Z,99829.41
2022-09-07T13:23:20.647Z,99837.47
2022-09-07T13:26:00.419Z,99835.41
2022-09-07T13:28:41.613Z,99827.34
2022-09-07T13:31:31.020Z,99831.06
2022-09-07T13:33:59.266Z,99831.91
2022-09-07T13:36:39.943Z,99829.81
2022-09-07T13:39:11.672Z,99827.53
2022-09-07T13:41:47.659Z,99826.28
2022-09-07T13:44:26.576Z,99831.25
2022-09-07T13:47:17.486Z,99827.75
2022-09-07T13:50:02.587Z,99822.75
2022-09-07T13:52:39.294Z,99823.81
2022-09-07T13:55:17.150Z,99813.91
2022-09-07T13:57:50.024Z,99824.59
2022-09-07T14:00:24.826Z,99812.41
2022-09-07T14:02:56.757Z,99809.09
2022-09-07T14:05:25.514Z,99810.16
2022-09-07T14:07:53.798Z,99800.13
2022-09-07T14:10:25.131Z,99814.47
2022-09-07T14:12:54.698Z,99799.63
2022-09-07T14:15:29.494Z,99802.28
2022-09-07T14:18:05.033Z,99799.97
2022-09-07T14:20:39.250Z,99798.22
2022-09-07T14:23:13.168Z,99802.13
2022-09-07T14:28:32.463Z,99792.81
2022-09-07T14:31:02.371Z,99792.88
2022-09-07T14:33:30.768Z,99789.69
2022-09-07T14:35:59.814Z,99789.50
2022-09-07T14:41:19.965Z,99786.06
2022-09-07T14:43:55.606Z,99777.91
2022-09-07T14:46:27.015Z,99786.47
2022-09-07T14:48:56.407Z,99785.56
2022-09-07T14:51:35.118Z,99781.03
2022-09-07T14:54:06.872Z,99778.53
2022-09-07T14:56:37.104Z,99760.94
2022-09-07T14:59:33.730Z,99770.78
2022-09-07T15:02:28.576Z,99777.06
2022-09-07T15:05:23.700Z,99772.34
2022-09-07T15:07:54.442Z,99770.81
2022-09-07T15:10:35.455Z,99771.53
2022-09-07T15:13:04.653Z,99772.66
2022-09-07T15:15:34.966Z,99768.66
2022-09-07T15:18:09.233Z,99771.16
2022-09-07T15:20:41.120Z,99777.88
2022-09-07T15:23:14.954Z,99775.69
2022-09-07T15:25:50.286Z,99772.00
2022-09-07T15:34:04.865Z,99769.53
2022-09-07T15:36:33.015Z,99767.88
2022-09-07T15:39:01.591Z,99766.75
2022-09-07T15:41:30.493Z,99764.75
2022-09-07T15:43:58.882Z,99762.47
2022-09-07T15:46:27.361Z,99772.78
2022-09-07T15:48:56.949Z,99765.16
2022-09-07T15:54:15.993Z,99776.75
2022-09-07T15:57:48.285Z,99772.41
2022-09-07T15:59:33.155Z,99773.97
2022-09-07T16:02:01.995Z,99774.19
2022-09-07T16:04:30.957Z,99777.81
2022-09-07T16:07:01.604Z,99775.09
2022-09-07T16:09:29.979Z,99778.41
2022-09-07T16:13:00.180Z,99773.84
2022-09-07T16:14:46.455Z,99784.50
2022-09-07T16:17:35.586Z,99776.13
2022-09-07T16:20:03.418Z,99781.72
2022-09-07T16:25:21.651Z,99787.91
2022-09-07T16:27:50.069Z,99785.72
2022-09-07T16:30:18.358Z,99794.28
2022-09-07T16:32:46.656Z,99792.66
2022-09-07T16:35:14.995Z,99797.81
2022-09-07T16:40:32.658Z,99799.56
2022-09-07T16:43:01.155Z,99798.53
2022-09-07T16:48:17.647Z,99796.16
2022-09-07T16:51:01.703Z,99801.72
2022-09-07T16:53:33.478Z,99810.72
2022-09-07T16:56:03.157Z,99801.72
2022-09-07T16:58:36.182Z,99807.75
2022-09-07T17:01:05.421Z,99803.94
2022-09-07T17:03:34.105Z,99812.88
2022-09-07T17:06:02.480Z,99810.63
2022-09-07T17:08:32.247Z,99809.38
2022-09-07T17:11:00.997Z,99803.56
2022-09-07T17:13:29.472Z,99809.38
2022-09-07T17:16:03.387Z,99805.78
2022-09-07T17:21:23.510Z,99820.44
2022-09-07T17:23:55.805Z,99814.56
2022-09-07T17:26:26.922Z,99820.03
2022-09-07T17:29:00.206Z,99819.00
2022-09-07T17:34:19.733Z,99805.44
2022-09-07T17:36:48.285Z,99801.31
2022-09-07T17:39:19.329Z,99826.22
2022-09-07T17:41:48.668Z,99823.06
2022-09-07T17:44:17.311Z,99822.47
2022-09-07T17:46:45.631Z,99815.34
2022-09-07T17:49:16.818Z,99815.13
2022-09-07T17:51:45.871Z,99821.84
2022-09-07T17:54:18.462Z,99818.13
2022-09-07T17:56:46.805Z,99825.16
2022-09-07T18:02:04.063Z,99819.47
2022-09-07T18:04:32.493Z,99824.13
2022-09-07T18:07:00.891Z,99822.06
2022-09-07T18:09:30.883Z,99819.16
2022-09-07T18:12:01.263Z,99833.63
2022-09-07T18:14:30.365Z,99820.22
2022-09-07T18:17:00.970Z,99821.44
2022-09-07T18:19:29.404Z,99824.34
2022-09-07T18:21:57.851Z,99818.47
2022-09-07T18:24:27.531Z,99826.13
2022-09-07T18:26:57.430Z,99832.69
2022-09-07T18:29:33.671Z,99825.84
2022-09-07T18:32:07.370Z,99831.69
2022-09-07T18:34:35.904Z,99829.19
2022-09-07T18:37:04.771Z,99824.03
2022-09-07T18:39:33.677Z,99830.75
2022-09-07T18:42:03.449Z,99835.91
2022-09-07T18:47:27.941Z,99830.53
2022-09-07T18:49:57.256Z,99837.16
2022-09-07T18:55:14.070Z,99843.09
2022-09-07T18:57:44.757Z,99844.53
2022-09-07T19:00:14.246Z,99840.41
2022-09-07T19:02:42.508Z,99838.72
2022-09-07T19:07:59.744Z,99850.19
2022-09-07T19:10:28.068Z,99852.47
2022-09-07T19:12:57.814Z,99855.03
2022-09-07T19:15:25.922Z,99850.63
2022-09-07T19:17:54.169Z,99853.50
2022-09-07T19:20:22.257Z,99858.50
2022-09-07T19:22:50.328Z,99854.13
2022-09-07T19:25:19.506Z,99854.34
2022-09-07T19:27:47.613Z,99860.75
2022-09-07T19:30:20.084Z,99860.31
2022-09-07T19:32:48.155Z,99867.63
2022-09-07T19:35:16.567Z,99855.72
2022-09-07T19:37:44.829Z,99860.66
2022-09-07T19:40:17.220Z,99858.16
2022-09-07T19:42:48.582Z,99852.38
2022-09-07T19:45:18.197Z,99859.81
2022-09-07T19:47:46.473Z,99862.81
2022-09-07T19:50:14.743Z,99864.50
2022-09-07T19:52:42.833Z,99864.09
2022-09-07T19:55:11.175Z,99863.88
2022-09-07T19:57:39.357Z,99864.78
2022-09-07T20:00:10.902Z,99864.38
2022-09-07T20:02:40.719Z,99868.91
2022-09-07T20:05:11.888Z,99864.50
2022-09-07T20:07:40.056Z,99865.13
2022-09-07T20:10:12.090Z,99859.84
2022-09-07T20:12:42.577Z,99856.16
2022-09-07T20:15:11.304Z,99852.09
2022-09-07T20:17:40.907Z,99858.84
2022-09-07T20:20:10.023Z,99856.94
2022-09-07T20:22:38.115Z,99855.00
2022-09-07T20:25:11.345Z,99861.78
2022-09-07T20:27:41.165Z,99853.19
2022-09-07T20:30:10.461Z,99849.34
2022-09-07T20:32:38.621Z,99853.34
2022-09-07T20:35:09.382Z,99849.28
2022-09-07T20:37:37.603Z,99847.44
2022-09-07T20:40:07.258Z,99858.13
2022-09-07T20:42:35.505Z,99850.69
2022-09-07T20:45:03.674Z,99861.91
2022-09-07T20:47:31.743Z,99858.59
2022-09-07T20:49:59.781Z,99854.47
2022-09-07T20:52:29.435Z,99860.03
2022-09-07T20:54:57.500Z,99858.88
2022-09-07T20:57:25.701Z,99851.63
2022-09-07T20:59:54.042Z,99856.63
2022-09-07T21:02:22.246Z,99852.88
2022-09-07T21:04:52.343Z,99859.28
2022-09-07T21:07:20.773Z,99850.94
2022-09-07T21:09:50.226Z,99847.63
2022-09-07T21:12:27.774Z,99853.19
2022-09-07T21:14:55.830Z,99854.25
2022-09-07T21:17:23.907Z,99852.56
2022-09-07T21:19:53.287Z,99848.06
2022-09-07T21:22:21.390Z,99856.66
2022-09-07T21:24:50.921Z,99847.44
2022-09-07T21:27:21.305Z,99859.13
2022-09-07T21:29:50.706Z,99854.06
2022-09-07T21:32:20.366Z,99862.63
2022-09-07T21:34:48.496Z,99858.44
2022-09-07T21:37:16.877Z,99858.41
2022-09-07T21:39:45.148Z,99853.25
2022-09-07T21:42:14.725Z,99853.38
2022-09-07T21:44:42.794Z,99847.47
2022-09-07T21:47:10.844Z,99856.53
2022-09-07T21:49:38.986Z,99853.31
2022-09-07T21:52:07.089Z,99853.25
2022-09-07T21:54:35.171Z,99852.66
2022-09-07T21:57:03.330Z,99852.59
2022-09-07T21:59:33.210Z,99837.00
2022-09-07T22:02:01.364Z,99851.53
2022-09-07T22:04:29.686Z,99849.06
2022-09-07T22:06:57.970Z,99851.84
2022-09-07T22:09:26.039Z,99823.09
2022-09-07T22:11:54.651Z,99849.28
2022-09-07T22:14:22.739Z,99853.41
2022-09-07T22:16:52.308Z,99843.72
2022-09-07T22:19:20.744Z,99848.69
2022-09-07T22:21:48.806Z,99844.53
2022-09-07T22:24:16.917Z,99854.63
2022-09-07T22:26:45.106Z,99844.53
2022-09-07T22:29:14.040Z,99851.78
2022-09-07T22:31:45.042Z,99846.22
2022-09-07T22:34:15.156Z,99856.81
2022-09-07T22:36:46.773Z,99849.28
2022-09-07T22:39:16.545Z,99851.78
2022-09-07T22:41:45.164Z,99855.06
2022-09-07T22:44:15.108Z,99853.41
2022-09-07T22:46:44.716Z,99850.88
2022-09-07T22:49:15.993Z,99856.66
2022-09-07T22:51:45.828Z,99856.13
2022-09-07T22:54:15.318Z,99854.84
2022-09-07T22:56:43.756Z,99857.94
2022-09-07T22:59:14.878Z,99860.72
2022-09-07T23:01:45.921Z,99865.75
2022-09-07T23:04:15.641Z,99867.44
2022-09-07T23:06:44.505Z,99868.00
2022-09-07T23:09:14.171Z,99858.47
2022-09-07T23:11:42.566Z,99855.91
2022-09-07T23:14:15.225Z,99864.19
2022-09-07T23:16:43.875Z,99866.69
2022-09-07T23:19:13.505Z,99858.84
2022-09-07T23:21:43.472Z,99851.16
2022-09-07T23:24:12.737Z,99857.78
2022-09-07T23:26:41.133Z,99871.94
2022-09-07T23:29:11.049Z,99863.56
2022-09-07T23:31:40.358Z,99869.16
2022-09-07T23:34:08.884Z,99874.09
2022-09-07T23:36:38.000Z,99874.94
2022-09-07T23:39:07.428Z,99861.56
2022-09-07T23:41:35.470Z,99864.34
2022-09-07T23:44:04.057Z,99869.91
2022-09-07T23:46:32.340Z,99868.53
2022-09-07T23:49:00.460Z,99867.75
2022-09-07T23:51:28.894Z,99867.75
2022-09-07T23:53:57.033Z,99873.06
2022-09-07T23:56:26.606Z,99876.16
2022-09-07T23:58:54.814Z,99874.50
